createdAt,value
2019-06-01T00:01:13.885Z,15.80
2019-06-01T00:03:42.176Z,15.70
2019-06-01T00:06:09.597Z,15.70
2019-06-01T00:08:36.864Z,15.80
2019-06-01T00:11:04.176Z,15.80
2019-06-01T00:13:31.445Z,15.70
2019-06-01T00:15:58.701Z,15.60
2019-06-01T00:18:25.957Z,15.60
2019-06-01T00:20:53.277Z,15.60
2019-06-01T00:23:20.525Z,15.60
2019-06-01T00:25:48.666Z,15.70
2019-06-01T00:28:16.156Z,15.60
2019-06-01T00:30:43.652Z,15.50
2019-06-01T00:33:11.073Z,15.50
2019-06-01T00:35:38.314Z,15.40
2019-06-01T00:38:05.578Z,15.40
2019-06-01T00:40:33.324Z,15.40
2019-06-01T00:43:00.638Z,15.40
2019-06-01T00:45:27.891Z,15.40
2019-06-01T00:47:55.221Z,15.40
2019-06-01T00:50:22.495Z,15.30
2019-06-01T00:52:49.765Z,15.30
2019-06-01T00:55:17.001Z,15.30
2019-06-01T00:57:45.589Z,15.20
2019-06-01T01:00:13.713Z,15.10
2019-06-01T01:02:41.001Z,15.00
2019-06-01T01:05:14.650Z,15.00
2019-06-01T01:07:41.889Z,15.00
2019-06-01T01:10:09.247Z,15.00
2019-06-01T01:12:56.025Z,15.00
2019-06-01T01:15:23.357Z,15.00
2019-06-01T01:17:51.915Z,15.00
2019-06-01T01:20:19.411Z,15.00
2019-06-01T01:22:46.681Z,14.90
2019-06-01T01:25:13.976Z,14.90
2019-06-01T01:27:41.262Z,14.90
2019-06-01T01:30:08.517Z,14.90
2019-06-01T01:32:35.812Z,14.80
2019-06-01T01:35:03.572Z,14.80
2019-06-01T01:37:30.831Z,14.70
2019-06-01T01:39:58.548Z,14.80
2019-06-01T01:42:25.905Z,14.80
2019-06-01T01:44:53.182Z,14.80
2019-06-01T01:47:20.451Z,14.80
2019-06-01T01:49:47.708Z,14.80
2019-06-01T01:52:14.987Z,14.80
2019-06-01T01:54:42.277Z,14.80
2019-06-01T01:57:09.541Z,14.80
2019-06-01T01:59:38.249Z,14.70
2019-06-01T02:02:05.552Z,14.70
2019-06-01T02:04:32.822Z,14.70
2019-06-01T02:07:00.365Z,14.60
2019-06-01T02:09:27.730Z,14.60
2019-06-01T02:11:55.425Z,14.60
2019-06-01T02:14:22.633Z,14.60
2019-06-01T02:16:50.009Z,14.50
2019-06-01T02:19:17.257Z,14.50
2019-06-01T02:21:44.509Z,14.50
2019-06-01T02:24:11.837Z,14.50
2019-06-01T02:26:39.073Z,14.40
2019-06-01T02:29:06.330Z,14.40
2019-06-01T02:31:41.864Z,14.40
2019-06-01T02:34:03.941Z,14.40
2019-06-01T02:36:31.905Z,14.30
2019-06-01T02:39:00.927Z,14.30
2019-06-01T02:41:28.390Z,14.30
2019-06-01T02:43:57.340Z,14.20
2019-06-01T02:46:24.784Z,14.20
2019-06-01T02:48:52.038Z,14.20
2019-06-01T02:51:19.276Z,14.20
2019-06-01T02:53:46.572Z,14.20
2019-06-01T02:56:13.855Z,14.20
2019-06-01T02:58:41.084Z,14.20
2019-06-01T03:01:55.902Z,14.20
2019-06-01T03:04:11.660Z,14.20
2019-06-01T03:06:41.994Z,14.10
2019-06-01T03:09:09.441Z,14.10
2019-06-01T03:11:38.201Z,14.10
2019-06-01T03:14:07.005Z,14.00
2019-06-01T03:16:40.060Z,13.90
2019-06-01T03:19:08.055Z,13.90
2019-06-01T03:21:35.851Z,13.90
2019-06-01T03:24:08.078Z,13.80
2019-06-01T03:26:41.405Z,13.80
2019-06-01T03:29:15.271Z,13.80
2019-06-01T03:31:42.530Z,13.70
2019-06-01T03:34:11.418Z,13.80
2019-06-01T03:36:38.845Z,13.80
2019-06-01T03:39:06.478Z,13.80
2019-06-01T03:41:34.157Z,13.80
2019-06-01T03:44:02.553Z,13.80
2019-06-01T03:46:29.965Z,13.80
2019-06-01T03:48:57.200Z,13.80
2019-06-01T03:51:24.466Z,13.80
2019-06-01T03:53:51.721Z,13.80
2019-06-01T03:56:18.975Z,13.80
2019-06-01T03:58:46.228Z,13.80
2019-06-01T04:01:13.461Z,13.80
2019-06-01T04:03:40.806Z,13.80
2019-06-01T04:06:09.321Z,13.80
2019-06-01T04:08:36.664Z,13.80
2019-06-01T04:11:03.888Z,13.90
2019-06-01T04:13:31.166Z,13.90
2019-06-01T04:15:58.408Z,13.90
2019-06-01T04:18:25.697Z,14.00
2019-06-01T04:20:52.924Z,14.00
2019-06-01T04:23:20.211Z,14.00
2019-06-01T04:25:47.619Z,14.10
2019-06-01T04:28:14.876Z,14.10
2019-06-01T04:30:42.133Z,14.20
2019-06-01T04:33:09.401Z,14.20
2019-06-01T04:35:36.645Z,14.20
2019-06-01T04:38:05.007Z,14.20
2019-06-01T04:40:32.582Z,14.30
2019-06-01T04:42:59.953Z,14.40
2019-06-01T04:45:27.194Z,14.40
2019-06-01T04:47:54.457Z,14.50
2019-06-01T04:50:21.797Z,14.50
2019-06-01T04:52:49.040Z,14.60
2019-06-01T04:55:16.351Z,14.70
2019-06-01T04:57:43.617Z,14.70
2019-06-01T05:00:25.728Z,14.80
2019-06-01T05:02:41.975Z,14.90
2019-06-01T05:05:09.720Z,15.00
2019-06-01T05:07:37.016Z,15.00
2019-06-01T05:10:05.180Z,15.10
2019-06-01T05:12:32.652Z,15.20
2019-06-01T05:14:59.922Z,15.30
2019-06-01T05:17:27.208Z,15.40
2019-06-01T05:19:54.489Z,15.50
2019-06-01T05:22:21.741Z,15.70
2019-06-01T05:24:49.041Z,15.80
2019-06-01T05:27:17.340Z,15.90
2019-06-01T05:29:44.729Z,16.10
2019-06-01T05:32:12.622Z,16.20
2019-06-01T05:34:39.933Z,16.30
2019-06-01T05:37:08.421Z,16.30
2019-06-01T05:39:35.989Z,16.40
2019-06-01T05:42:03.300Z,16.60
2019-06-01T05:44:30.576Z,16.80
2019-06-01T05:46:57.832Z,17.00
2019-06-01T05:49:25.096Z,17.20
2019-06-01T05:51:52.348Z,17.50
2019-06-01T05:54:19.590Z,17.70
2019-06-01T05:56:46.868Z,18.00
2019-06-01T05:59:14.197Z,18.40
2019-06-01T06:01:41.457Z,18.70
2019-06-01T06:04:08.709Z,19.00
2019-06-01T06:06:35.985Z,19.20
2019-06-01T06:09:05.770Z,19.30
2019-06-01T06:11:33.024Z,19.40
2019-06-01T06:14:00.497Z,19.60
2019-06-01T06:16:27.764Z,19.90
2019-06-01T06:18:55.031Z,20.40
2019-06-01T06:21:22.501Z,20.80
2019-06-01T06:23:49.850Z,20.90
2019-06-01T06:26:18.673Z,21.10
2019-06-01T06:28:46.313Z,21.10
2019-06-01T06:31:13.613Z,21.20
2019-06-01T06:33:55.449Z,21.20
2019-06-01T06:36:10.373Z,21.50
2019-06-01T06:38:37.729Z,21.60
2019-06-01T06:41:05.002Z,21.80
2019-06-01T06:43:33.345Z,21.80
2019-06-01T06:46:00.756Z,22.00
2019-06-01T06:48:28.192Z,22.30
2019-06-01T06:50:55.442Z,22.40
2019-06-01T06:53:32.779Z,22.70
2019-06-01T06:55:51.890Z,22.90
2019-06-01T06:58:20.917Z,23.40
2019-06-01T07:00:48.382Z,23.40
2019-06-01T07:03:16.800Z,23.50
2019-06-01T07:05:44.247Z,23.80
2019-06-01T07:08:11.545Z,24.00
2019-06-01T07:10:38.855Z,24.20
2019-06-01T07:13:06.439Z,24.40
2019-06-01T07:15:33.721Z,24.50
2019-06-01T07:18:00.998Z,24.50
2019-06-01T07:20:28.385Z,24.40
2019-06-01T07:22:55.709Z,24.30
2019-06-01T07:25:23.043Z,24.50
2019-06-01T07:30:17.529Z,24.80
2019-06-01T07:32:44.885Z,24.70
2019-06-01T07:35:12.137Z,24.90
2019-06-01T07:37:39.420Z,25.40
2019-06-01T07:40:06.863Z,25.60
2019-06-01T07:42:34.313Z,25.80
2019-06-01T07:45:01.713Z,25.80
2019-06-01T07:47:29.233Z,26.00
2019-06-01T07:49:56.621Z,26.10
2019-06-01T07:52:24.204Z,26.60
2019-06-01T07:54:51.681Z,26.60
2019-06-01T07:57:19.191Z,26.80
2019-06-01T07:59:46.452Z,26.60
2019-06-01T08:02:13.748Z,26.60
2019-06-01T08:04:53.185Z,26.60
2019-06-01T08:07:10.202Z,26.60
2019-06-01T08:09:37.469Z,26.50
2019-06-01T08:12:04.792Z,26.90
2019-06-01T08:14:32.887Z,27.00
2019-06-01T08:17:00.333Z,27.20
2019-06-01T08:19:28.043Z,27.40
2019-06-01T08:21:55.490Z,27.60
2019-06-01T08:24:22.686Z,27.60
2019-06-01T08:26:50.101Z,27.30
2019-06-01T08:29:17.386Z,27.30
2019-06-01T08:31:44.645Z,27.10
2019-06-01T08:34:11.942Z,27.30
2019-06-01T08:36:39.327Z,27.60
2019-06-01T08:39:06.720Z,27.80
2019-06-01T08:41:33.986Z,27.70
2019-06-01T08:44:01.252Z,27.70
2019-06-01T08:46:29.583Z,27.80
2019-06-01T08:48:57.118Z,27.80
2019-06-01T08:51:26.358Z,27.70
2019-06-01T08:53:53.937Z,27.90
2019-06-01T08:56:22.128Z,28.10
2019-06-01T08:58:49.575Z,28.00
2019-06-01T09:01:16.942Z,28.30
2019-06-01T09:03:46.814Z,28.60
2019-06-01T09:06:13.421Z,28.60
2019-06-01T09:08:40.721Z,28.70
2019-06-01T09:11:08.039Z,28.70
2019-06-01T09:13:35.572Z,28.80
2019-06-01T09:16:03.271Z,28.90
2019-06-01T09:18:31.569Z,28.90
2019-06-01T09:20:59.055Z,29.00
2019-06-01T09:23:27.525Z,29.00
2019-06-01T09:25:54.941Z,29.20
2019-06-01T09:28:22.258Z,29.40
2019-06-01T09:30:49.530Z,29.70
2019-06-01T09:33:16.770Z,30.10
2019-06-01T09:35:54.431Z,30.20
2019-06-01T09:38:13.257Z,30.10
2019-06-01T09:40:40.623Z,30.10
2019-06-01T09:43:07.927Z,30.20
2019-06-01T09:45:36.307Z,30.50
2019-06-01T09:48:03.803Z,30.70
2019-06-01T09:50:31.301Z,30.80
2019-06-01T09:52:58.660Z,30.80
2019-06-01T09:55:25.956Z,30.80
2019-06-01T09:57:53.602Z,30.80
2019-06-01T10:00:21.201Z,30.90
2019-06-01T10:02:48.485Z,31.20
2019-06-01T10:05:15.742Z,31.00
2019-06-01T10:07:43.245Z,30.90
2019-06-01T10:10:10.655Z,31.10
2019-06-01T10:12:38.263Z,31.20
2019-06-01T10:15:07.265Z,31.00
2019-06-01T10:17:35.172Z,30.70
2019-06-01T10:20:02.919Z,30.80
2019-06-01T10:22:30.957Z,31.00
2019-06-01T10:24:58.392Z,31.10
2019-06-01T10:27:25.746Z,30.90
2019-06-01T10:29:53.060Z,30.70
2019-06-01T10:32:20.276Z,30.60
2019-06-01T10:34:47.624Z,30.50
2019-06-01T10:37:14.892Z,30.80
2019-06-01T10:39:42.164Z,31.00
2019-06-01T10:42:09.479Z,31.20
2019-06-01T10:44:41.716Z,31.50
2019-06-01T10:47:06.009Z,31.60
2019-06-01T10:49:33.861Z,31.60
2019-06-01T10:52:01.267Z,31.80
2019-06-01T10:54:28.594Z,31.90
2019-06-01T10:56:55.829Z,31.90
2019-06-01T10:59:23.102Z,31.90
2019-06-01T11:01:50.348Z,31.90
2019-06-01T11:04:17.619Z,31.90
2019-06-01T11:06:48.590Z,32.10
2019-06-01T11:09:14.148Z,32.10
2019-06-01T11:11:41.529Z,32.00
2019-06-01T11:14:08.824Z,32.20
2019-06-01T11:16:37.270Z,31.90
2019-06-01T11:19:04.706Z,31.60
2019-06-01T11:21:33.408Z,31.70
2019-06-01T11:24:00.874Z,32.00
2019-06-01T11:26:28.174Z,31.90
2019-06-01T11:28:55.413Z,32.00
2019-06-01T11:31:22.729Z,31.90
2019-06-01T11:33:49.965Z,32.00
2019-06-01T11:36:17.262Z,32.00
2019-06-01T11:38:45.035Z,32.20
2019-06-01T11:41:12.509Z,32.00
2019-06-01T11:43:40.621Z,32.10
2019-06-01T11:46:07.964Z,32.30
2019-06-01T11:48:35.240Z,32.10
2019-06-01T11:51:02.473Z,32.20
2019-06-01T11:53:29.721Z,32.10
2019-06-01T11:55:57.010Z,32.00
2019-06-01T11:58:24.256Z,31.90
2019-06-01T12:00:51.551Z,32.00
2019-06-01T12:03:18.975Z,32.00
2019-06-01T12:05:46.607Z,32.20
2019-06-01T12:08:13.886Z,32.60
2019-06-01T12:10:41.142Z,32.60
2019-06-01T12:13:08.398Z,32.40
2019-06-01T12:15:36.319Z,32.20
2019-06-01T12:18:03.716Z,32.50
2019-06-01T12:20:30.998Z,32.60
2019-06-01T12:22:58.244Z,32.80
2019-06-01T12:25:25.513Z,33.00
2019-06-01T12:27:52.756Z,33.10
2019-06-01T12:30:20.453Z,33.10
2019-06-01T12:32:48.846Z,32.90
2019-06-01T12:35:16.373Z,32.70
2019-06-01T12:37:59.649Z,32.60
2019-06-01T12:40:13.337Z,32.60
2019-06-01T12:42:41.499Z,32.70
2019-06-01T12:45:15.485Z,33.10
2019-06-01T12:47:43.705Z,32.90
2019-06-01T12:50:11.767Z,32.70
2019-06-01T12:52:40.308Z,32.50
2019-06-01T12:55:08.069Z,32.60
2019-06-01T12:57:35.317Z,32.90
2019-06-01T13:00:02.988Z,33.20
2019-06-01T13:02:30.266Z,33.10
2019-06-01T13:04:57.546Z,33.00
2019-06-01T13:07:24.805Z,33.20
2019-06-01T13:09:52.851Z,33.00
2019-06-01T13:12:20.249Z,33.30
2019-06-01T13:14:47.532Z,33.10
2019-06-01T13:17:14.812Z,32.90
2019-06-01T13:19:43.200Z,32.70
2019-06-01T13:22:10.735Z,32.80
2019-06-01T13:24:38.064Z,32.80
2019-06-01T13:27:05.322Z,32.80
2019-06-01T13:29:32.605Z,32.70
2019-06-01T13:31:59.900Z,32.60
2019-06-01T13:34:27.248Z,32.80
2019-06-01T13:36:54.519Z,32.80
2019-06-01T13:39:21.819Z,32.50
2019-06-01T13:41:49.546Z,32.10
2019-06-01T13:44:17.068Z,32.10
2019-06-01T13:46:45.286Z,32.10
2019-06-01T13:49:12.646Z,32.20
2019-06-01T13:51:39.920Z,32.40
2019-06-01T13:54:07.202Z,32.70
2019-06-01T13:56:34.544Z,32.40
2019-06-01T13:59:01.793Z,32.50
2019-06-01T14:01:29.221Z,32.70
2019-06-01T14:03:56.522Z,33.00
2019-06-01T14:06:23.761Z,32.90
2019-06-01T14:08:51.153Z,32.70
2019-06-01T14:11:18.528Z,32.80
2019-06-01T14:13:45.703Z,32.60
2019-06-01T14:16:12.954Z,32.50
2019-06-01T14:18:40.245Z,32.30
2019-06-01T14:21:07.527Z,32.40
2019-06-01T14:23:34.778Z,32.70
2019-06-01T14:26:02.066Z,32.60
2019-06-01T14:28:29.217Z,32.60
2019-06-01T14:30:56.579Z,32.60
2019-06-01T14:33:23.946Z,32.80
2019-06-01T14:35:52.731Z,32.60
2019-06-01T14:38:20.405Z,32.60
2019-06-01T14:40:48.834Z,32.70
2019-06-01T14:43:16.244Z,32.70
2019-06-01T14:45:43.771Z,32.40
2019-06-01T14:48:11.118Z,32.40
2019-06-01T14:50:38.398Z,32.50
2019-06-01T14:53:05.673Z,32.70
2019-06-01T14:55:32.950Z,32.80
2019-06-01T14:58:00.200Z,33.00
2019-06-01T15:00:27.456Z,32.70
2019-06-01T15:02:54.699Z,32.50
2019-06-01T15:05:21.972Z,32.20
2019-06-01T15:07:50.157Z,32.30
2019-06-01T15:10:18.225Z,32.20
2019-06-01T15:12:45.512Z,32.20
2019-06-01T15:15:13.090Z,32.20
2019-06-01T15:17:40.377Z,32.40
2019-06-01T15:20:08.270Z,32.60
2019-06-01T15:22:35.520Z,32.60
2019-06-01T15:25:03.728Z,32.30
2019-06-01T15:27:31.085Z,32.00
2019-06-01T15:29:59.010Z,31.80
2019-06-01T15:32:26.839Z,31.70
2019-06-01T15:34:54.536Z,31.80
2019-06-01T15:37:21.906Z,31.60
2019-06-01T15:39:50.500Z,31.70
2019-06-01T15:42:17.848Z,31.80
2019-06-01T15:44:45.103Z,31.80
2019-06-01T15:47:12.386Z,31.70
2019-06-01T15:49:39.670Z,31.60
2019-06-01T15:52:06.977Z,31.50
2019-06-01T15:54:34.259Z,31.60
2019-06-01T15:57:02.594Z,31.50
2019-06-01T15:59:30.064Z,31.70
2019-06-01T16:01:57.449Z,31.80
2019-06-01T16:04:24.765Z,31.70
2019-06-01T16:06:53.052Z,31.60
2019-06-01T16:09:20.393Z,31.60
2019-06-01T16:11:47.677Z,31.60
2019-06-01T16:14:14.972Z,31.80
2019-06-01T16:16:42.284Z,31.70
2019-06-01T16:19:09.559Z,31.50
2019-06-01T16:21:36.826Z,31.50
2019-06-01T16:24:04.529Z,31.60
2019-06-01T16:26:31.839Z,31.70
2019-06-01T16:29:00.417Z,31.80
2019-06-01T16:31:27.834Z,31.80
2019-06-01T16:33:56.460Z,31.80
2019-06-01T16:36:23.878Z,31.50
2019-06-01T16:38:51.382Z,31.50
2019-06-01T16:41:18.738Z,31.40
2019-06-01T16:43:46.002Z,31.10
2019-06-01T16:46:13.284Z,31.20
2019-06-01T16:48:40.508Z,31.00
2019-06-01T16:51:07.831Z,31.10
2019-06-01T16:53:35.071Z,31.10
2019-06-01T16:56:02.319Z,31.00
2019-06-01T16:58:29.608Z,31.00
2019-06-01T17:00:56.845Z,31.10
2019-06-01T17:03:24.096Z,31.10
2019-06-01T17:05:51.341Z,31.00
2019-06-01T17:08:18.613Z,30.80
2019-06-01T17:10:45.973Z,30.40
2019-06-01T17:13:13.264Z,30.40
2019-06-01T17:15:40.521Z,30.30
2019-06-01T17:18:10.317Z,30.20
2019-06-01T17:20:40.268Z,30.20
2019-06-01T17:23:24.201Z,29.80
2019-06-01T17:25:36.810Z,29.70
2019-06-01T17:28:05.239Z,29.60
2019-06-01T17:30:32.617Z,29.60
2019-06-01T17:33:00.327Z,29.50
2019-06-01T17:35:27.703Z,29.50
2019-06-01T17:37:55.057Z,29.50
2019-06-01T17:40:36.265Z,29.70
2019-06-01T17:42:51.468Z,29.70
2019-06-01T17:45:18.782Z,29.60
2019-06-01T17:47:46.066Z,29.60
2019-06-01T17:50:13.597Z,29.70
2019-06-01T17:52:40.852Z,29.70
2019-06-01T17:55:09.121Z,29.70
2019-06-01T17:57:36.518Z,29.70
2019-06-01T18:00:05.832Z,29.80
2019-06-01T18:02:33.262Z,29.70
2019-06-01T18:05:01.959Z,29.60
2019-06-01T18:07:29.436Z,29.50
2019-06-01T18:09:56.692Z,29.30
2019-06-01T18:12:24.047Z,29.10
2019-06-01T18:14:51.375Z,29.00
2019-06-01T18:17:18.713Z,28.90
2019-06-01T18:19:45.906Z,28.70
2019-06-01T18:22:13.329Z,28.60
2019-06-01T18:24:40.575Z,28.50
2019-06-01T18:27:08.512Z,28.30
2019-06-01T18:29:38.996Z,28.20
2019-06-01T18:32:06.074Z,28.10
2019-06-01T18:34:33.971Z,27.80
2019-06-01T18:37:01.271Z,27.60
2019-06-01T18:39:28.557Z,27.40
2019-06-01T18:41:55.846Z,27.10
2019-06-01T18:44:23.117Z,26.90
2019-06-01T18:46:50.716Z,26.70
2019-06-01T18:49:18.382Z,26.50
2019-06-01T18:51:45.963Z,26.30
2019-06-01T18:54:13.334Z,26.00
2019-06-01T18:56:40.610Z,25.80
2019-06-01T18:59:08.540Z,25.60
2019-06-01T19:01:35.926Z,25.50
2019-06-01T19:04:03.393Z,25.40
2019-06-01T19:06:30.689Z,25.30
2019-06-01T19:08:58.181Z,25.20
2019-06-01T19:11:35.502Z,25.10
2019-06-01T19:13:54.669Z,24.90
2019-06-01T19:16:21.956Z,24.70
2019-06-01T19:18:49.245Z,24.50
2019-06-01T19:21:16.940Z,24.30
2019-06-01T19:23:44.483Z,24.20
2019-06-01T19:26:14.613Z,23.90
2019-06-01T19:28:40.973Z,23.80
2019-06-01T19:31:08.798Z,23.60
2019-06-01T19:33:36.296Z,23.40
2019-06-01T19:36:03.883Z,23.30
2019-06-01T19:38:32.821Z,23.10
2019-06-01T19:41:00.128Z,23.10
2019-06-01T19:43:27.384Z,23.00
2019-06-01T19:45:54.666Z,22.80
2019-06-01T19:48:21.965Z,22.60
2019-06-01T19:50:49.266Z,22.50
2019-06-01T19:53:16.845Z,22.40
2019-06-01T19:55:44.304Z,22.40
2019-06-01T19:58:12.173Z,22.30
2019-06-01T20:00:39.555Z,22.20
2019-06-01T20:03:07.046Z,22.20
2019-06-01T20:05:34.445Z,22.10
2019-06-01T20:08:01.703Z,22.00
2019-06-01T20:10:29.017Z,21.90
2019-06-01T20:12:56.265Z,21.80
2019-06-01T20:15:23.567Z,21.80
2019-06-01T20:17:50.869Z,21.70
2019-06-01T20:20:19.652Z,21.60
2019-06-01T20:22:47.098Z,21.50
2019-06-01T20:25:15.298Z,21.40
2019-06-01T20:27:42.640Z,21.20
2019-06-01T20:30:11.608Z,21.20
2019-06-01T20:32:39.073Z,21.10
2019-06-01T20:35:06.370Z,21.00
2019-06-01T20:37:33.624Z,21.00
2019-06-01T20:40:00.930Z,21.00
2019-06-01T20:42:32.562Z,21.00
2019-06-01T20:44:57.394Z,20.90
2019-06-01T20:47:24.656Z,20.90
2019-06-01T20:49:51.932Z,20.80
2019-06-01T20:52:19.221Z,20.70
2019-06-01T20:54:46.516Z,20.60
2019-06-01T20:57:13.809Z,20.50
2019-06-01T20:59:41.121Z,20.40
2019-06-01T21:02:08.363Z,20.40
2019-06-01T21:04:35.632Z,20.40
2019-06-01T21:07:03.016Z,20.30
2019-06-01T21:09:30.278Z,20.30
2019-06-01T21:11:57.586Z,20.30
2019-06-01T21:14:24.850Z,20.20
2019-06-01T21:16:52.113Z,20.10
2019-06-01T21:19:20.387Z,20.00
2019-06-01T21:21:47.860Z,19.90
2019-06-01T21:24:15.131Z,19.90
2019-06-01T21:26:42.414Z,19.80
2019-06-01T21:29:09.689Z,19.80
2019-06-01T21:31:36.981Z,19.70
2019-06-01T21:34:04.263Z,19.70
2019-06-01T21:36:31.594Z,19.70
2019-06-01T21:38:58.917Z,19.60
2019-06-01T21:41:26.330Z,19.60
2019-06-01T21:43:53.577Z,19.50
2019-06-01T21:46:21.707Z,19.40
2019-06-01T21:48:49.022Z,19.40
2019-06-01T21:51:17.641Z,19.30
2019-06-01T21:53:45.025Z,19.20
2019-06-01T21:56:12.281Z,19.20
2019-06-01T21:58:39.557Z,19.10
2019-06-01T22:01:06.980Z,19.10
2019-06-01T22:03:34.241Z,19.10
2019-06-01T22:06:01.530Z,19.10
2019-06-01T22:08:28.901Z,19.10
2019-06-01T22:10:56.173Z,19.10
2019-06-01T22:13:25.337Z,19.20
2019-06-01T22:15:52.665Z,19.20
2019-06-01T22:18:19.898Z,19.20
2019-06-01T22:20:47.164Z,19.20
2019-06-01T22:23:14.517Z,19.20
2019-06-01T22:25:41.768Z,19.20
2019-06-01T22:28:09.029Z,19.20
2019-06-01T22:30:36.334Z,19.10
2019-06-01T22:33:04.451Z,19.00
2019-06-01T22:35:31.901Z,18.80
2019-06-01T22:37:59.186Z,18.60
2019-06-01T22:40:27.290Z,18.60
2019-06-01T22:42:54.733Z,18.50
2019-06-01T22:45:22.139Z,18.50
2019-06-01T22:47:49.585Z,18.60
2019-06-01T22:50:16.958Z,18.60
2019-06-01T22:52:44.303Z,18.60
2019-06-01T22:55:11.704Z,18.50
2019-06-01T22:57:42.891Z,18.50
2019-06-01T23:00:10.204Z,18.50
2019-06-01T23:02:37.484Z,18.50
2019-06-01T23:05:05.070Z,18.40
2019-06-01T23:07:32.322Z,18.30
2019-06-01T23:09:59.551Z,18.20
2019-06-01T23:12:27.596Z,18.20
2019-06-01T23:14:55.008Z,18.10
2019-06-01T23:17:23.707Z,18.10
2019-06-01T23:19:51.154Z,18.10
2019-06-01T23:22:18.409Z,18.00
2019-06-01T23:24:45.681Z,18.00
2019-06-01T23:27:12.958Z,18.00
2019-06-01T23:29:40.233Z,17.90
2019-06-01T23:32:08.351Z,18.00
2019-06-01T23:34:35.616Z,17.90
2019-06-01T23:37:02.901Z,17.90
2019-06-01T23:39:30.764Z,17.70
2019-06-01T23:41:58.219Z,17.70
2019-06-01T23:44:29.310Z,17.60
2019-06-01T23:46:54.761Z,17.50
2019-06-01T23:49:23.103Z,17.50
2019-06-01T23:51:50.481Z,17.50
2019-06-01T23:54:17.781Z,17.40
2019-06-01T23:56:45.033Z,17.30
2019-06-01T23:59:12.262Z,17.10
